sensor_id;sensor_type;location;lat;lon;timestamp;temperature;humidity
62583;DHT22;48641;51.676;5.808;2023-03-31T00:00:35;16.00;66.00
62583;DHT22;48641;51.676;5.808;2023-03-31T00:03:01;16.00;66.00
62583;DHT22;48641;51.676;5.808;2023-03-31T00:05:27;16.00;66.10
62583;DHT22;48641;51.676;5.808;2023-03-31T00:07:54;16.00;66.10
62583;DHT22;48641;51.676;5.808;2023-03-31T00:10:30;16.00;66.20
62583;DHT22;48641;51.676;5.808;2023-03-31T00:12:58;16.00;66.20
62583;DHT22;48641;51.676;5.808;2023-03-31T00:15:23;16.00;66.20
62583;DHT22;48641;51.676;5.808;2023-03-31T00:17:49;16.00;66.30
62583;DHT22;48641;51.676;5.808;2023-03-31T00:20:15;16.00;66.30
62583;DHT22;48641;51.676;5.808;2023-03-31T00:22:42;16.00;66.30
62583;DHT22;48641;51.676;5.808;2023-03-31T00:25:15;16.00;66.20
62583;DHT22;48641;51.676;5.808;2023-03-31T00:27:44;15.90;66.20
62583;DHT22;48641;51.676;5.808;2023-03-31T00:30:13;16.00;66.30
62583;DHT22;48641;51.676;5.808;2023-03-31T00:32:40;16.00;66.30
62583;DHT22;48641;51.676;5.808;2023-03-31T00:35:05;16.00;66.30
62583;DHT22;48641;51.676;5.808;2023-03-31T00:37:31;15.90;66.30
62583;DHT22;48641;51.676;5.808;2023-03-31T00:40:00;15.90;66.20
62583;DHT22;48641;51.676;5.808;2023-03-31T00:42:26;16.00;66.30
62583;DHT22;48641;51.676;5.808;2023-03-31T00:50:40;15.90;66.20
62583;DHT22;48641;51.676;5.808;2023-03-31T00:53:11;15.90;66.30
62583;DHT22;48641;51.676;5.808;2023-03-31T00:55:47;15.90;66.30
62583;DHT22;48641;51.676;5.808;2023-03-31T00:58:15;15.90;67.30
62583;DHT22;48641;51.676;5.808;2023-03-31T01:00:47;15.90;66.40
62583;DHT22;48641;51.676;5.808;2023-03-31T01:03:14;15.90;66.30
62583;DHT22;48641;51.676;5.808;2023-03-31T01:05:46;15.90;66.30
62583;DHT22;48641;51.676;5.808;2023-03-31T01:08:18;15.90;66.30
62583;DHT22;48641;51.676;5.808;2023-03-31T01:10:47;15.90;66.30
62583;DHT22;48641;51.676;5.808;2023-03-31T01:13:15;15.90;66.20
62583;DHT22;48641;51.676;5.808;2023-03-31T01:15:42;15.90;66.20
62583;DHT22;48641;51.676;5.808;2023-03-31T01:18:08;15.90;66.20
62583;DHT22;48641;51.676;5.808;2023-03-31T01:43:22;15.80;66.30
62583;DHT22;48641;51.676;5.808;2023-03-31T01:46:10;15.80;66.30
62583;DHT22;48641;51.676;5.808;2023-03-31T01:56:46;15.80;66.40
62583;DHT22;48641;51.676;5.808;2023-03-31T01:59:18;15.80;66.60
62583;DHT22;48641;51.676;5.808;2023-03-31T02:02:05;15.80;66.70
62583;DHT22;48641;51.676;5.808;2023-03-31T02:04:54;15.80;66.60
62583;DHT22;48641;51.676;5.808;2023-03-31T02:07:34;15.80;66.60
62583;DHT22;48641;51.676;5.808;2023-03-31T02:10:05;15.80;66.60
62583;DHT22;48641;51.676;5.808;2023-03-31T02:12:32;15.80;66.60
62583;DHT22;48641;51.676;5.808;2023-03-31T02:15:01;15.80;66.60
62583;DHT22;48641;51.676;5.808;2023-03-31T02:17:28;15.80;66.50
62583;DHT22;48641;51.676;5.808;2023-03-31T02:19:58;15.80;67.50
62583;DHT22;48641;51.676;5.808;2023-03-31T02:22:29;15.80;66.40
62583;DHT22;48641;51.676;5.808;2023-03-31T02:24:56;15.70;66.60
62583;DHT22;48641;51.676;5.808;2023-03-31T02:27:34;15.70;66.60
62583;DHT22;48641;51.676;5.808;2023-03-31T02:30:00;15.70;66.60
62583;DHT22;48641;51.676;5.808;2023-03-31T02:32:38;15.80;66.60
62583;DHT22;48641;51.676;5.808;2023-03-31T02:35:07;15.80;66.50
62583;DHT22;48641;51.676;5.808;2023-03-31T02:37:34;15.80;66.50
62583;DHT22;48641;51.676;5.808;2023-03-31T02:40:04;15.80;66.40
62583;DHT22;48641;51.676;5.808;2023-03-31T02:42:30;15.80;66.40
62583;DHT22;48641;51.676;5.808;2023-03-31T02:45:32;15.80;66.30
62583;DHT22;48641;51.676;5.808;2023-03-31T02:47:52;15.80;66.20
62583;DHT22;48641;51.676;5.808;2023-03-31T02:50:19;15.80;66.30
62583;DHT22;48641;51.676;5.808;2023-03-31T02:53:09;15.80;66.30
62583;DHT22;48641;51.676;5.808;2023-03-31T02:55:52;15.80;66.20
62583;DHT22;48641;51.676;5.808;2023-03-31T02:58:46;15.80;66.20
62583;DHT22;48641;51.676;5.808;2023-03-31T03:01:26;15.80;66.20
62583;DHT22;48641;51.676;5.808;2023-03-31T03:11:48;15.80;66.30
62583;DHT22;48641;51.676;5.808;2023-03-31T03:17:04;15.80;66.30
62583;DHT22;48641;51.676;5.808;2023-03-31T03:19:31;15.80;66.30
62583;DHT22;48641;51.676;5.808;2023-03-31T03:21:57;15.80;66.30
62583;DHT22;48641;51.676;5.808;2023-03-31T03:24:22;15.80;66.20
62583;DHT22;48641;51.676;5.808;2023-03-31T03:26:48;15.80;66.20
62583;DHT22;48641;51.676;5.808;2023-03-31T03:29:14;15.80;66.20
62583;DHT22;48641;51.676;5.808;2023-03-31T03:31:42;15.80;66.20
62583;DHT22;48641;51.676;5.808;2023-03-31T03:34:08;15.80;66.20
62583;DHT22;48641;51.676;5.808;2023-03-31T03:36:35;15.80;66.20
62583;DHT22;48641;51.676;5.808;2023-03-31T03:39:03;15.80;66.20
62583;DHT22;48641;51.676;5.808;2023-03-31T03:41:29;15.80;67.10
62583;DHT22;48641;51.676;5.808;2023-03-31T03:43:55;15.80;66.10
62583;DHT22;48641;51.676;5.808;2023-03-31T03:46:21;15.80;66.10
62583;DHT22;48641;51.676;5.808;2023-03-31T03:48:47;15.80;66.10
62583;DHT22;48641;51.676;5.808;2023-03-31T03:51:12;15.80;66.10
62583;DHT22;48641;51.676;5.808;2023-03-31T03:53:38;15.80;66.10
62583;DHT22;48641;51.676;5.808;2023-03-31T03:56:03;15.80;66.00
62583;DHT22;48641;51.676;5.808;2023-03-31T03:58:29;15.80;66.00
62583;DHT22;48641;51.676;5.808;2023-03-31T04:00:55;15.80;66.10
62583;DHT22;48641;51.676;5.808;2023-03-31T04:03:21;15.80;67.00
62583;DHT22;48641;51.676;5.808;2023-03-31T04:05:47;15.80;66.00
62583;DHT22;48641;51.676;5.808;2023-03-31T04:08:17;15.80;66.00
62583;DHT22;48641;51.676;5.808;2023-03-31T04:10:44;15.80;66.00
62583;DHT22;48641;51.676;5.808;2023-03-31T04:13:10;15.80;66.10
62583;DHT22;48641;51.676;5.808;2023-03-31T04:15:35;15.80;66.00
62583;DHT22;48641;51.676;5.808;2023-03-31T04:18:01;15.80;66.00
62583;DHT22;48641;51.676;5.808;2023-03-31T04:20:27;15.80;66.00
62583;DHT22;48641;51.676;5.808;2023-03-31T04:22:55;15.80;66.00
62583;DHT22;48641;51.676;5.808;2023-03-31T04:25:21;15.70;65.90
62583;DHT22;48641;51.676;5.808;2023-03-31T04:27:50;15.80;66.00
62583;DHT22;48641;51.676;5.808;2023-03-31T04:30:26;15.80;66.00
62583;DHT22;48641;51.676;5.808;2023-03-31T04:32:59;15.80;66.00
62583;DHT22;48641;51.676;5.808;2023-03-31T04:35:29;15.80;66.00
62583;DHT22;48641;51.676;5.808;2023-03-31T04:38:07;15.70;66.00
62583;DHT22;48641;51.676;5.808;2023-03-31T04:40:33;15.70;66.00
62583;DHT22;48641;51.676;5.808;2023-03-31T04:43:00;15.70;66.00
62583;DHT22;48641;51.676;5.808;2023-03-31T04:45:26;15.80;66.00
62583;DHT22;48641;51.676;5.808;2023-03-31T04:47:51;15.80;66.00
62583;DHT22;48641;51.676;5.808;2023-03-31T04:50:17;15.80;66.00
62583;DHT22;48641;51.676;5.808;2023-03-31T04:52:43;15.80;66.00
62583;DHT22;48641;51.676;5.808;2023-03-31T04:55:09;15.80;66.00
62583;DHT22;48641;51.676;5.808;2023-03-31T04:57:34;15.80;66.00
62583;DHT22;48641;51.676;5.808;2023-03-31T05:00:04;15.80;66.00
62583;DHT22;48641;51.676;5.808;2023-03-31T05:02:32;15.80;66.00
62583;DHT22;48641;51.676;5.808;2023-03-31T05:04:58;15.80;66.00
62583;DHT22;48641;51.676;5.808;2023-03-31T05:07:23;15.80;66.00
62583;DHT22;48641;51.676;5.808;2023-03-31T05:09:49;15.70;65.90
62583;DHT22;48641;51.676;5.808;2023-03-31T05:12:15;15.80;66.00
62583;DHT22;48641;51.676;5.808;2023-03-31T05:14:40;15.70;65.90
62583;DHT22;48641;51.676;5.808;2023-03-31T05:17:06;15.70;65.90
62583;DHT22;48641;51.676;5.808;2023-03-31T05:19:32;15.70;65.90
62583;DHT22;48641;51.676;5.808;2023-03-31T05:21:57;15.70;65.90
62583;DHT22;48641;51.676;5.808;2023-03-31T05:24:23;15.70;65.90
62583;DHT22;48641;51.676;5.808;2023-03-31T05:26:49;15.70;65.90
62583;DHT22;48641;51.676;5.808;2023-03-31T05:29:20;15.70;65.90
62583;DHT22;48641;51.676;5.808;2023-03-31T05:31:46;15.80;66.10
62583;DHT22;48641;51.676;5.808;2023-03-31T05:34:13;15.70;66.00
62583;DHT22;48641;51.676;5.808;2023-03-31T05:36:38;15.70;66.00
62583;DHT22;48641;51.676;5.808;2023-03-31T05:39:05;15.70;65.90
62583;DHT22;48641;51.676;5.808;2023-03-31T05:41:31;15.70;66.00
62583;DHT22;48641;51.676;5.808;2023-03-31T05:43:57;15.70;66.00
62583;DHT22;48641;51.676;5.808;2023-03-31T05:46:23;15.70;66.00
62583;DHT22;48641;51.676;5.808;2023-03-31T05:48:49;15.70;66.00
62583;DHT22;48641;51.676;5.808;2023-03-31T05:51:14;15.70;66.00
62583;DHT22;48641;51.676;5.808;2023-03-31T05:53:41;15.70;66.10
62583;DHT22;48641;51.676;5.808;2023-03-31T05:56:07;15.70;66.00
62583;DHT22;48641;51.676;5.808;2023-03-31T05:58:36;15.70;66.00
62583;DHT22;48641;51.676;5.808;2023-03-31T06:01:11;15.70;66.00
62583;DHT22;48641;51.676;5.808;2023-03-31T06:03:39;15.70;66.00
62583;DHT22;48641;51.676;5.808;2023-03-31T06:06:07;15.70;67.00
62583;DHT22;48641;51.676;5.808;2023-03-31T06:08:34;15.70;66.00
62583;DHT22;48641;51.676;5.808;2023-03-31T06:11:02;15.70;66.00
62583;DHT22;48641;51.676;5.808;2023-03-31T06:13:28;15.70;67.00
62583;DHT22;48641;51.676;5.808;2023-03-31T06:15:58;15.70;65.90
62583;DHT22;48641;51.676;5.808;2023-03-31T06:18:26;15.60;65.90
62583;DHT22;48641;51.676;5.808;2023-03-31T06:20:53;15.70;66.10
62583;DHT22;48641;51.676;5.808;2023-03-31T06:23:19;15.60;65.90
62583;DHT22;48641;51.676;5.808;2023-03-31T06:25:45;15.70;66.00
62583;DHT22;48641;51.676;5.808;2023-03-31T06:28:10;15.70;66.00
62583;DHT22;48641;51.676;5.808;2023-03-31T06:30:36;15.70;66.00
62583;DHT22;48641;51.676;5.808;2023-03-31T06:33:02;15.70;66.00
62583;DHT22;48641;51.676;5.808;2023-03-31T06:35:28;15.70;67.00
62583;DHT22;48641;51.676;5.808;2023-03-31T06:37:54;15.70;66.00
62583;DHT22;48641;51.676;5.808;2023-03-31T06:40:19;15.70;66.00
62583;DHT22;48641;51.676;5.808;2023-03-31T06:42:45;15.70;65.90
62583;DHT22;48641;51.676;5.808;2023-03-31T06:45:11;15.70;65.90
62583;DHT22;48641;51.676;5.808;2023-03-31T06:47:36;15.70;66.90
62583;DHT22;48641;51.676;5.808;2023-03-31T06:50:04;15.70;65.90
62583;DHT22;48641;51.676;5.808;2023-03-31T06:52:30;15.70;65.90
62583;DHT22;48641;51.676;5.808;2023-03-31T06:54:56;15.70;65.90
62583;DHT22;48641;51.676;5.808;2023-03-31T06:57:22;15.70;65.90
62583;DHT22;48641;51.676;5.808;2023-03-31T06:59:47;15.70;65.90
62583;DHT22;48641;51.676;5.808;2023-03-31T07:02:13;15.70;65.90
62583;DHT22;48641;51.676;5.808;2023-03-31T07:04:39;15.70;65.90
62583;DHT22;48641;51.676;5.808;2023-03-31T07:07:05;15.60;65.80
62583;DHT22;48641;51.676;5.808;2023-03-31T07:09:30;15.60;65.90
62583;DHT22;48641;51.676;5.808;2023-03-31T07:11:56;15.60;65.80
62583;DHT22;48641;51.676;5.808;2023-03-31T07:14:22;15.60;65.80
62583;DHT22;48641;51.676;5.808;2023-03-31T07:16:47;15.60;65.90
62583;DHT22;48641;51.676;5.808;2023-03-31T07:19:15;15.60;65.90
62583;DHT22;48641;51.676;5.808;2023-03-31T07:21:40;15.70;66.00
62583;DHT22;48641;51.676;5.808;2023-03-31T07:24:06;15.60;65.90
62583;DHT22;48641;51.676;5.808;2023-03-31T07:26:32;15.70;66.00
62583;DHT22;48641;51.676;5.808;2023-03-31T07:28:57;15.60;65.90
62583;DHT22;48641;51.676;5.808;2023-03-31T07:31:23;15.60;65.90
62583;DHT22;48641;51.676;5.808;2023-03-31T07:33:49;15.70;66.00
62583;DHT22;48641;51.676;5.808;2023-03-31T07:36:15;15.60;65.90
62583;DHT22;48641;51.676;5.808;2023-03-31T07:38:43;15.60;65.80
62583;DHT22;48641;51.676;5.808;2023-03-31T07:41:12;15.60;66.90
62583;DHT22;48641;51.676;5.808;2023-03-31T07:43:38;15.60;66.20
62583;DHT22;48641;51.676;5.808;2023-03-31T07:46:04;15.60;66.40
62583;DHT22;48641;51.676;5.808;2023-03-31T07:48:32;15.60;66.40
62583;DHT22;48641;51.676;5.808;2023-03-31T07:50:58;15.60;66.40
62583;DHT22;48641;51.676;5.808;2023-03-31T07:53:24;15.70;66.40
62583;DHT22;48641;51.676;5.808;2023-03-31T07:55:49;15.60;66.30
62583;DHT22;48641;51.676;5.808;2023-03-31T07:58:16;15.70;67.40
62583;DHT22;48641;51.676;5.808;2023-03-31T08:00:41;15.60;66.30
62583;DHT22;48641;51.676;5.808;2023-03-31T08:03:10;15.60;66.30
62583;DHT22;48641;51.676;5.808;2023-03-31T08:05:35;15.60;66.30
62583;DHT22;48641;51.676;5.808;2023-03-31T08:08:01;15.60;66.20
62583;DHT22;48641;51.676;5.808;2023-03-31T08:10:28;15.60;66.20
62583;DHT22;48641;51.676;5.808;2023-03-31T08:12:54;15.60;66.20
62583;DHT22;48641;51.676;5.808;2023-03-31T08:15:20;15.60;66.30
62583;DHT22;48641;51.676;5.808;2023-03-31T08:17:46;15.60;66.20
62583;DHT22;48641;51.676;5.808;2023-03-31T08:20:12;15.60;66.20
62583;DHT22;48641;51.676;5.808;2023-03-31T08:22:38;15.70;66.30
62583;DHT22;48641;51.676;5.808;2023-03-31T08:25:05;15.70;66.30
62583;DHT22;48641;51.676;5.808;2023-03-31T08:27:33;15.60;66.20
62583;DHT22;48641;51.676;5.808;2023-03-31T08:29:59;15.60;66.20
62583;DHT22;48641;51.676;5.808;2023-03-31T08:32:32;15.60;66.20
62583;DHT22;48641;51.676;5.808;2023-03-31T08:34:57;15.60;66.20
62583;DHT22;48641;51.676;5.808;2023-03-31T08:37:23;15.60;66.40
62583;DHT22;48641;51.676;5.808;2023-03-31T08:39:50;15.60;66.40
62583;DHT22;48641;51.676;5.808;2023-03-31T08:45:16;15.60;66.50
62583;DHT22;48641;51.676;5.808;2023-03-31T08:47:45;15.60;66.50
62583;DHT22;48641;51.676;5.808;2023-03-31T08:50:14;15.60;66.60
62583;DHT22;48641;51.676;5.808;2023-03-31T08:52:47;15.60;66.60
62583;DHT22;48641;51.676;5.808;2023-03-31T08:55:23;15.60;66.50
62583;DHT22;48641;51.676;5.808;2023-03-31T08:58:12;15.60;66.50
62583;DHT22;48641;51.676;5.808;2023-03-31T09:00:50;15.60;66.50
62583;DHT22;48641;51.676;5.808;2023-03-31T09:03:53;15.60;66.50
62583;DHT22;48641;51.676;5.808;2023-03-31T09:06:42;15.60;66.40
62583;DHT22;48641;51.676;5.808;2023-03-31T09:09:34;15.60;66.50
62583;DHT22;48641;51.676;5.808;2023-03-31T09:12:13;15.50;66.50
62583;DHT22;48641;51.676;5.808;2023-03-31T09:14:45;15.60;66.50
62583;DHT22;48641;51.676;5.808;2023-03-31T09:17:21;15.50;66.50
62583;DHT22;48641;51.676;5.808;2023-03-31T09:20:11;15.50;66.50
62583;DHT22;48641;51.676;5.808;2023-03-31T09:22:42;15.60;66.50
62583;DHT22;48641;51.676;5.808;2023-03-31T09:25:26;15.60;66.60
62583;DHT22;48641;51.676;5.808;2023-03-31T09:27:55;15.50;66.50
62583;DHT22;48641;51.676;5.808;2023-03-31T09:30:26;15.50;66.50
62583;DHT22;48641;51.676;5.808;2023-03-31T09:35:36;15.50;66.60
62583;DHT22;48641;51.676;5.808;2023-03-31T09:38:01;15.60;66.60
62583;DHT22;48641;51.676;5.808;2023-03-31T09:40:28;15.50;66.50
62583;DHT22;48641;51.676;5.808;2023-03-31T09:45:29;15.60;66.60
62583;DHT22;48641;51.676;5.808;2023-03-31T09:48:20;15.60;66.60
62583;DHT22;48641;51.676;5.808;2023-03-31T09:50:57;15.60;66.60
62583;DHT22;48641;51.676;5.808;2023-03-31T09:53:38;15.60;66.70
62583;DHT22;48641;51.676;5.808;2023-03-31T09:56:07;15.60;66.90
62583;DHT22;48641;51.676;5.808;2023-03-31T09:58:40;15.50;66.90
62583;DHT22;48641;51.676;5.808;2023-03-31T10:01:07;15.50;67.00
62583;DHT22;48641;51.676;5.808;2023-03-31T10:03:49;15.60;67.10
62583;DHT22;48641;51.676;5.808;2023-03-31T10:06:17;15.60;67.10
62583;DHT22;48641;51.676;5.808;2023-03-31T10:11:21;15.60;67.30
62583;DHT22;48641;51.676;5.808;2023-03-31T10:14:09;15.60;67.20
62583;DHT22;48641;51.676;5.808;2023-03-31T10:16:48;15.70;67.20
62583;DHT22;48641;51.676;5.808;2023-03-31T10:19:26;15.60;67.20
62583;DHT22;48641;51.676;5.808;2023-03-31T10:25:20;15.60;67.20
62583;DHT22;48641;51.676;5.808;2023-03-31T10:27:46;15.60;67.00
62583;DHT22;48641;51.676;5.808;2023-03-31T10:30:31;15.60;67.10
62583;DHT22;48641;51.676;5.808;2023-03-31T10:33:03;15.60;67.10
62583;DHT22;48641;51.676;5.808;2023-03-31T10:35:32;15.60;67.10
62583;DHT22;48641;51.676;5.808;2023-03-31T10:38:04;15.60;67.20
62583;DHT22;48641;51.676;5.808;2023-03-31T10:40:32;15.60;67.20
62583;DHT22;48641;51.676;5.808;2023-03-31T10:43:04;15.70;67.40
62583;DHT22;48641;51.676;5.808;2023-03-31T10:45:40;15.60;67.30
62583;DHT22;48641;51.676;5.808;2023-03-31T10:48:34;15.60;67.20
62583;DHT22;48641;51.676;5.808;2023-03-31T10:51:04;15.60;67.10
62583;DHT22;48641;51.676;5.808;2023-03-31T10:53:45;15.60;67.40
62583;DHT22;48641;51.676;5.808;2023-03-31T11:21:27;15.60;67.60
62583;DHT22;48641;51.676;5.808;2023-03-31T11:30:31;15.60;67.60
62583;DHT22;48641;51.676;5.808;2023-03-31T11:36:04;15.50;67.90
62583;DHT22;48641;51.676;5.808;2023-03-31T11:41:30;15.50;67.90
62583;DHT22;48641;51.676;5.808;2023-03-31T11:44:01;15.50;68.00
62583;DHT22;48641;51.676;5.808;2023-03-31T11:46:56;15.50;68.00
62583;DHT22;48641;51.676;5.808;2023-03-31T11:49:33;15.50;67.90
62583;DHT22;48641;51.676;5.808;2023-03-31T11:52:24;15.50;67.90
62583;DHT22;48641;51.676;5.808;2023-03-31T11:55:15;15.50;67.80
62583;DHT22;48641;51.676;5.808;2023-03-31T11:57:46;15.60;67.70
62583;DHT22;48641;51.676;5.808;2023-03-31T12:00:20;15.60;67.90
62583;DHT22;48641;51.676;5.808;2023-03-31T12:05:42;15.60;67.80
62583;DHT22;48641;51.676;5.808;2023-03-31T12:08:30;15.60;67.90
62583;DHT22;48641;51.676;5.808;2023-03-31T12:16:25;15.60;67.70
62583;DHT22;48641;51.676;5.808;2023-03-31T12:19:10;15.60;67.60
62583;DHT22;48641;51.676;5.808;2023-03-31T12:21:43;15.60;67.60
62583;DHT22;48641;51.676;5.808;2023-03-31T12:24:12;15.60;67.50
62583;DHT22;48641;51.676;5.808;2023-03-31T12:29:49;15.60;67.40
62583;DHT22;48641;51.676;5.808;2023-03-31T12:32:20;15.60;67.60
62583;DHT22;48641;51.676;5.808;2023-03-31T12:34:53;15.60;67.50
62583;DHT22;48641;51.676;5.808;2023-03-31T12:40:51;15.60;67.40
62583;DHT22;48641;51.676;5.808;2023-03-31T12:43:32;15.60;67.50
62583;DHT22;48641;51.676;5.808;2023-03-31T12:54:28;15.60;67.20
62583;DHT22;48641;51.676;5.808;2023-03-31T12:59:35;15.60;67.30
62583;DHT22;48641;51.676;5.808;2023-03-31T13:04:42;15.60;67.40
62583;DHT22;48641;51.676;5.808;2023-03-31T13:10:22;15.60;67.10
62583;DHT22;48641;51.676;5.808;2023-03-31T13:13:10;15.60;67.10
62583;DHT22;48641;51.676;5.808;2023-03-31T13:15:37;15.60;67.10
62583;DHT22;48641;51.676;5.808;2023-03-31T13:18:05;15.50;67.20
62583;DHT22;48641;51.676;5.808;2023-03-31T13:20:36;15.50;67.30
62583;DHT22;48641;51.676;5.808;2023-03-31T13:33:29;15.50;67.70
62583;DHT22;48641;51.676;5.808;2023-03-31T13:44:44;15.60;67.80
62583;DHT22;48641;51.676;5.808;2023-03-31T13:57:55;15.60;67.80
62583;DHT22;48641;51.676;5.808;2023-03-31T14:00:44;15.60;67.70
62583;DHT22;48641;51.676;5.808;2023-03-31T14:06:24;15.70;67.70
62583;DHT22;48641;51.676;5.808;2023-03-31T14:08:58;15.70;67.80
62583;DHT22;48641;51.676;5.808;2023-03-31T14:11:26;15.60;67.70
62583;DHT22;48641;51.676;5.808;2023-03-31T14:16:45;15.70;68.60
62583;DHT22;48641;51.676;5.808;2023-03-31T14:19:52;15.70;67.70
62583;DHT22;48641;51.676;5.808;2023-03-31T14:27:58;15.60;67.80
62583;DHT22;48641;51.676;5.808;2023-03-31T14:30:29;15.60;67.80
62583;DHT22;48641;51.676;5.808;2023-03-31T14:33:45;15.60;67.90
62583;DHT22;48641;51.676;5.808;2023-03-31T14:38:35;15.60;67.90
62583;DHT22;48641;51.676;5.808;2023-03-31T14:41:01;15.60;67.90
62583;DHT22;48641;51.676;5.808;2023-03-31T14:43:31;15.60;68.00
62583;DHT22;48641;51.676;5.808;2023-03-31T14:46:04;15.60;67.90
62583;DHT22;48641;51.676;5.808;2023-03-31T14:48:34;15.60;67.90
62583;DHT22;48641;51.676;5.808;2023-03-31T14:51:07;15.60;67.90
62583;DHT22;48641;51.676;5.808;2023-03-31T14:53:35;15.70;67.90
62583;DHT22;48641;51.676;5.808;2023-03-31T14:56:07;15.60;67.80
62583;DHT22;48641;51.676;5.808;2023-03-31T14:58:40;15.70;67.80
62583;DHT22;48641;51.676;5.808;2023-03-31T15:01:08;15.60;68.50
62583;DHT22;48641;51.676;5.808;2023-03-31T15:03:36;15.60;67.80
62583;DHT22;48641;51.676;5.808;2023-03-31T15:06:06;15.60;68.80
62583;DHT22;48641;51.676;5.808;2023-03-31T15:08:32;15.70;67.90
62583;DHT22;48641;51.676;5.808;2023-03-31T15:11:01;15.60;67.90
62583;DHT22;48641;51.676;5.808;2023-03-31T15:13:34;15.70;67.90
62583;DHT22;48641;51.676;5.808;2023-03-31T15:16:20;15.70;67.80
62583;DHT22;48641;51.676;5.808;2023-03-31T15:18:53;15.70;67.70
62583;DHT22;48641;51.676;5.808;2023-03-31T15:21:20;15.60;67.70
62583;DHT22;48641;51.676;5.808;2023-03-31T15:23:51;15.70;67.80
62583;DHT22;48641;51.676;5.808;2023-03-31T15:26:21;15.70;67.80
62583;DHT22;48641;51.676;5.808;2023-03-31T15:28:54;15.70;67.80
62583;DHT22;48641;51.676;5.808;2023-03-31T15:31:21;15.70;67.80
62583;DHT22;48641;51.676;5.808;2023-03-31T15:33:47;15.70;67.80
62583;DHT22;48641;51.676;5.808;2023-03-31T15:36:13;15.70;67.80
62583;DHT22;48641;51.676;5.808;2023-03-31T15:38:39;15.70;67.70
62583;DHT22;48641;51.676;5.808;2023-03-31T15:41:13;15.70;67.60
62583;DHT22;48641;51.676;5.808;2023-03-31T15:43:46;15.70;67.80
62583;DHT22;48641;51.676;5.808;2023-03-31T15:46:47;15.80;67.90
62583;DHT22;48641;51.676;5.808;2023-03-31T15:49:21;15.80;67.60
62583;DHT22;48641;51.676;5.808;2023-03-31T15:51:49;15.70;67.60
62583;DHT22;48641;51.676;5.808;2023-03-31T15:54:35;15.70;67.60
62583;DHT22;48641;51.676;5.808;2023-03-31T15:57:03;15.70;67.50
62583;DHT22;48641;51.676;5.808;2023-03-31T15:59:31;15.70;67.70
62583;DHT22;48641;51.676;5.808;2023-03-31T16:02:12;15.70;67.60
62583;DHT22;48641;51.676;5.808;2023-03-31T16:04:39;15.70;67.60
62583;DHT22;48641;51.676;5.808;2023-03-31T16:07:28;15.70;67.60
62583;DHT22;48641;51.676;5.808;2023-03-31T16:10:04;15.70;68.50
62583;DHT22;48641;51.676;5.808;2023-03-31T16:12:47;15.70;67.50
62583;DHT22;48641;51.676;5.808;2023-03-31T16:15:20;15.70;67.50
62583;DHT22;48641;51.676;5.808;2023-03-31T16:17:55;15.70;67.50
62583;DHT22;48641;51.676;5.808;2023-03-31T16:20:30;15.70;67.60
62583;DHT22;48641;51.676;5.808;2023-03-31T16:22:58;15.70;67.60
62583;DHT22;48641;51.676;5.808;2023-03-31T16:25:26;15.70;67.70
62583;DHT22;48641;51.676;5.808;2023-03-31T16:27:57;15.70;67.60
62583;DHT22;48641;51.676;5.808;2023-03-31T16:30:38;15.70;67.70
62583;DHT22;48641;51.676;5.808;2023-03-31T16:33:07;15.70;67.60
62583;DHT22;48641;51.676;5.808;2023-03-31T16:35:37;15.70;67.60
62583;DHT22;48641;51.676;5.808;2023-03-31T16:38:05;15.70;67.60
62583;DHT22;48641;51.676;5.808;2023-03-31T16:40:39;15.70;67.60
62583;DHT22;48641;51.676;5.808;2023-03-31T16:43:23;15.70;67.60
62583;DHT22;48641;51.676;5.808;2023-03-31T16:45:51;15.70;67.60
62583;DHT22;48641;51.676;5.808;2023-03-31T16:48:18;15.70;67.60
62583;DHT22;48641;51.676;5.808;2023-03-31T16:50:45;15.70;67.60
62583;DHT22;48641;51.676;5.808;2023-03-31T16:53:13;15.70;67.60
62583;DHT22;48641;51.676;5.808;2023-03-31T16:55:39;15.70;67.60
62583;DHT22;48641;51.676;5.808;2023-03-31T16:58:04;15.70;67.50
62583;DHT22;48641;51.676;5.808;2023-03-31T17:00:31;15.70;67.50
62583;DHT22;48641;51.676;5.808;2023-03-31T17:03:00;15.70;67.40
62583;DHT22;48641;51.676;5.808;2023-03-31T17:05:26;15.70;68.40
62583;DHT22;48641;51.676;5.808;2023-03-31T17:07:52;15.70;67.40
62583;DHT22;48641;51.676;5.808;2023-03-31T17:10:18;15.70;67.40
62583;DHT22;48641;51.676;5.808;2023-03-31T17:12:44;15.80;67.40
62583;DHT22;48641;51.676;5.808;2023-03-31T17:15:10;15.70;67.40
62583;DHT22;48641;51.676;5.808;2023-03-31T17:17:36;15.70;67.40
62583;DHT22;48641;51.676;5.808;2023-03-31T17:20:03;15.80;67.30
62583;DHT22;48641;51.676;5.808;2023-03-31T17:22:29;15.70;67.30
62583;DHT22;48641;51.676;5.808;2023-03-31T17:24:55;15.70;67.30
62583;DHT22;48641;51.676;5.808;2023-03-31T17:27:24;15.70;67.20
62583;DHT22;48641;51.676;5.808;2023-03-31T17:29:49;15.70;67.20
62583;DHT22;48641;51.676;5.808;2023-03-31T17:32:15;15.70;67.20
62583;DHT22;48641;51.676;5.808;2023-03-31T17:34:42;15.70;67.20
62583;DHT22;48641;51.676;5.808;2023-03-31T17:37:07;15.70;67.20
62583;DHT22;48641;51.676;5.808;2023-03-31T17:39:33;15.70;67.20
62583;DHT22;48641;51.676;5.808;2023-03-31T17:41:59;15.70;67.20
62583;DHT22;48641;51.676;5.808;2023-03-31T17:44:25;15.70;68.20
62583;DHT22;48641;51.676;5.808;2023-03-31T17:46:50;15.70;67.20
62583;DHT22;48641;51.676;5.808;2023-03-31T17:49:16;15.70;67.20
62583;DHT22;48641;51.676;5.808;2023-03-31T17:51:42;15.70;67.20
62583;DHT22;48641;51.676;5.808;2023-03-31T17:54:09;15.70;67.20
62583;DHT22;48641;51.676;5.808;2023-03-31T17:56:36;15.70;67.20
62583;DHT22;48641;51.676;5.808;2023-03-31T17:59:03;15.70;67.20
62583;DHT22;48641;51.676;5.808;2023-03-31T18:01:29;15.70;67.20
62583;DHT22;48641;51.676;5.808;2023-03-31T18:03:55;15.70;67.10
62583;DHT22;48641;51.676;5.808;2023-03-31T18:06:21;15.70;67.10
62583;DHT22;48641;51.676;5.808;2023-03-31T18:08:46;15.70;67.10
62583;DHT22;48641;51.676;5.808;2023-03-31T18:11:12;15.70;67.10
62583;DHT22;48641;51.676;5.808;2023-03-31T18:13:38;15.70;67.10
62583;DHT22;48641;51.676;5.808;2023-03-31T18:16:05;15.70;67.00
62583;DHT22;48641;51.676;5.808;2023-03-31T18:18:34;15.70;67.00
62583;DHT22;48641;51.676;5.808;2023-03-31T18:21:05;15.70;67.10
62583;DHT22;48641;51.676;5.808;2023-03-31T18:23:32;15.60;67.00
62583;DHT22;48641;51.676;5.808;2023-03-31T18:25:58;15.60;67.10
62583;DHT22;48641;51.676;5.808;2023-03-31T18:28:24;15.70;67.10
62583;DHT22;48641;51.676;5.808;2023-03-31T18:30:49;15.60;67.00
62583;DHT22;48641;51.676;5.808;2023-03-31T18:33:15;15.60;67.00
62583;DHT22;48641;51.676;5.808;2023-03-31T18:35:42;15.60;67.00
62583;DHT22;48641;51.676;5.808;2023-03-31T18:38:08;15.60;67.10
62583;DHT22;48641;51.676;5.808;2023-03-31T18:40:34;15.60;67.00
62583;DHT22;48641;51.676;5.808;2023-03-31T18:43:00;15.60;67.00